createdAt,value
2023-05-05T00:00:39.996Z,559.3846
2023-05-05T00:01:42.582Z,564.0769
2023-05-05T00:02:45.289Z,563.8461
2023-05-05T00:03:47.955Z,559.6154
2023-05-05T00:04:50.440Z,560.3846
2023-05-05T00:05:53.019Z,561.4615
2023-05-05T00:06:55.620Z,560.0769
2023-05-05T00:07:58.224Z,563.0000
2023-05-05T00:09:00.845Z,569.5385
2023-05-05T00:10:03.435Z,572.6923
2023-05-05T00:11:06.045Z,577.3077
2023-05-05T00:12:08.632Z,578.0000
2023-05-05T00:13:11.387Z,578.0000
2023-05-05T00:14:13.857Z,578.0000
2023-05-05T00:15:16.464Z,576.5385
2023-05-05T00:16:19.040Z,573.6154
2023-05-05T00:17:21.695Z,569.9231
2023-05-05T00:18:24.256Z,566.3846
2023-05-05T00:19:26.881Z,567.3077
2023-05-05T00:20:29.557Z,572.2308
2023-05-05T00:21:32.094Z,577.6923
2023-05-05T00:22:34.679Z,583.3846
2023-05-05T00:23:37.308Z,585.0000
2023-05-05T00:24:39.900Z,585.2308
2023-05-05T00:25:42.531Z,586.8461
2023-05-05T00:26:45.107Z,587.0000
2023-05-05T00:27:47.739Z,587.2308
2023-05-05T00:28:50.341Z,586.3077
2023-05-05T00:29:52.946Z,584.2308
2023-05-05T00:30:55.533Z,581.5385
2023-05-05T00:31:58.179Z,582.6923
2023-05-05T00:33:00.778Z,582.3077
2023-05-05T00:34:03.369Z,583.1539
2023-05-05T00:35:05.942Z,581.6923
2023-05-05T00:36:08.580Z,580.8461
2023-05-05T00:37:11.167Z,580.6154
2023-05-05T00:38:13.791Z,580.5385
2023-05-05T00:39:16.359Z,583.8461
2023-05-05T00:40:18.989Z,585.7692
2023-05-05T00:41:21.619Z,590.6923
2023-05-05T00:42:24.189Z,597.7692
2023-05-05T00:43:26.771Z,600.0769
2023-05-05T00:44:29.406Z,598.6923
2023-05-05T00:45:31.984Z,600.2308
2023-05-05T00:46:34.616Z,600.8461
2023-05-05T00:47:37.240Z,600.3077
2023-05-05T00:48:39.803Z,598.3077
2023-05-05T00:49:42.377Z,594.0769
2023-05-05T00:50:45.027Z,592.3077
2023-05-05T00:51:47.592Z,589.9231
2023-05-05T00:52:50.219Z,589.6923
2023-05-05T00:53:52.800Z,588.2308
2023-05-05T00:54:55.437Z,587.5385
2023-05-05T00:55:58.001Z,587.2308
2023-05-05T00:57:00.632Z,586.3846
2023-05-05T00:58:03.219Z,585.8461
2023-05-05T00:59:05.843Z,588.2308
2023-05-05T01:00:08.790Z,590.0769
2023-05-05T01:01:11.168Z,593.6923
2023-05-05T01:02:13.618Z,595.1539
2023-05-05T01:03:16.303Z,594.2308
2023-05-05T01:04:18.825Z,592.8461
2023-05-05T01:05:21.438Z,591.0769
2023-05-05T01:06:24.026Z,590.5385
2023-05-05T01:07:26.661Z,589.8461
2023-05-05T01:08:29.243Z,585.9231
2023-05-05T01:09:31.859Z,584.2308
2023-05-05T01:10:34.429Z,585.7692
2023-05-05T01:11:37.047Z,586.6923
2023-05-05T01:12:39.650Z,589.0769
2023-05-05T01:13:42.254Z,591.4615
2023-05-05T01:14:44.826Z,595.0769
2023-05-05T01:15:47.470Z,601.1539
2023-05-05T01:16:50.035Z,603.3846
2023-05-05T01:17:52.751Z,602.6923
2023-05-05T01:18:55.263Z,605.6154
2023-05-05T01:19:57.865Z,604.2308
2023-05-05T01:21:00.481Z,603.6154
2023-05-05T01:22:03.067Z,602.3077
2023-05-05T01:23:05.659Z,602.1539
2023-05-05T01:24:08.313Z,600.5385
2023-05-05T01:25:10.867Z,599.9231
2023-05-05T01:26:14.276Z,598.3846
2023-05-05T01:27:16.073Z,598.2308
2023-05-05T01:28:18.693Z,596.2308
2023-05-05T01:29:21.312Z,594.6154
2023-05-05T01:30:23.907Z,593.0000
2023-05-05T01:31:26.507Z,590.9231
2023-05-05T01:32:29.213Z,589.0769
2023-05-05T01:33:31.678Z,587.2308
2023-05-05T01:34:34.320Z,584.6154
2023-05-05T01:35:36.880Z,582.3077
2023-05-05T01:36:39.519Z,580.1539
2023-05-05T01:37:42.095Z,580.8461
2023-05-05T01:38:44.717Z,578.0769
2023-05-05T01:39:47.305Z,571.8461
2023-05-05T01:40:49.950Z,570.2308
2023-05-05T01:41:52.508Z,567.6923
2023-05-05T01:42:55.130Z,565.7692
2023-05-05T01:45:31.978Z,535.7857
2023-05-05T01:46:34.520Z,541.0769
2023-05-05T01:47:37.168Z,542.6154
2023-05-05T01:48:41.761Z,543.3846
2023-05-05T01:49:42.351Z,544.2308
2023-05-05T01:50:44.932Z,546.6923
2023-05-05T01:51:47.850Z,550.4615
2023-05-05T01:52:50.169Z,550.4615
2023-05-05T01:53:52.767Z,551.0769
2023-05-05T01:54:55.358Z,550.9231
2023-05-05T01:55:57.993Z,550.6923
2023-05-05T01:57:00.568Z,553.6923
2023-05-05T01:58:03.289Z,555.0769
2023-05-05T01:59:05.752Z,556.4615
2023-05-05T02:00:08.657Z,559.6923
2023-05-05T02:01:11.091Z,561.4615
2023-05-05T02:02:13.617Z,563.6154
2023-05-05T02:03:16.345Z,569.0000
2023-05-05T02:04:18.801Z,573.9231
2023-05-05T02:05:21.385Z,574.7692
2023-05-05T02:06:24.011Z,576.0769
2023-05-05T02:07:26.594Z,578.1539
2023-05-05T02:08:29.223Z,578.0000
2023-05-05T02:09:31.798Z,575.3846
2023-05-05T02:10:34.437Z,575.5385
2023-05-05T02:11:37.016Z,577.5385
2023-05-05T02:12:39.696Z,577.3077
2023-05-05T02:13:42.277Z,576.8461
2023-05-05T02:14:44.867Z,577.4615
2023-05-05T02:15:47.433Z,576.4615
2023-05-05T02:16:50.052Z,576.5385
2023-05-05T02:17:52.676Z,577.6154
2023-05-05T02:18:55.256Z,581.6154
2023-05-05T02:19:57.833Z,586.1539
2023-05-05T02:21:00.561Z,585.6923
2023-05-05T02:23:42.086Z,571.5714
2023-05-05T02:24:44.674Z,576.3846
2023-05-05T02:25:47.302Z,577.6154
2023-05-05T02:26:49.891Z,576.6923
2023-05-05T02:27:52.524Z,576.8461
2023-05-05T02:28:55.104Z,575.3846
2023-05-05T02:29:57.859Z,572.1539
2023-05-05T02:31:00.350Z,572.8461
2023-05-05T02:32:02.944Z,569.2308
2023-05-05T02:33:05.602Z,565.7692
2023-05-05T02:34:08.132Z,565.1539
2023-05-05T02:35:10.709Z,563.9231
2023-05-05T02:36:13.550Z,563.0000
2023-05-05T02:37:15.920Z,566.6154
2023-05-05T02:38:18.542Z,574.6154
2023-05-05T02:39:21.130Z,581.7692
2023-05-05T02:40:23.751Z,586.1539
2023-05-05T02:41:26.324Z,589.4615
2023-05-05T02:42:28.959Z,586.5385
2023-05-05T02:43:31.565Z,578.3846
2023-05-05T02:44:34.178Z,574.9231
2023-05-05T02:45:36.749Z,574.4615
2023-05-05T02:46:39.403Z,574.1539
2023-05-05T02:47:41.986Z,572.3846
2023-05-05T02:50:04.355Z,568.8571
2023-05-05T02:51:06.924Z,580.3846
2023-05-05T02:52:09.563Z,585.6923
2023-05-05T02:53:12.242Z,587.5385
2023-05-05T02:54:14.796Z,587.6154
2023-05-05T02:57:10.864Z,562.3571
2023-05-05T02:58:13.437Z,565.7692
2023-05-05T02:59:16.428Z,566.0000
2023-05-05T03:00:18.651Z,565.4615
2023-05-05T03:01:21.317Z,563.9231
2023-05-05T03:02:23.905Z,561.9231
2023-05-05T03:03:26.510Z,560.2308
2023-05-05T03:04:29.095Z,559.3077
2023-05-05T03:05:31.674Z,554.3846
2023-05-05T03:06:34.308Z,551.6923
2023-05-05T03:07:36.888Z,551.1539
2023-05-05T03:08:39.500Z,549.6923
2023-05-05T03:09:42.086Z,550.3846
2023-05-05T03:10:44.718Z,551.3077
2023-05-05T03:11:47.298Z,554.6154
2023-05-05T03:12:49.933Z,555.6154
2023-05-05T03:13:52.495Z,553.3846
2023-05-05T03:14:55.161Z,552.2308
2023-05-05T03:15:57.734Z,551.6923
2023-05-05T03:17:00.319Z,552.6154
2023-05-05T03:18:02.987Z,550.6154
2023-05-05T03:19:05.520Z,548.0000
2023-05-05T03:20:08.353Z,548.2308
2023-05-05T03:21:10.706Z,546.3846
2023-05-05T03:24:06.764Z,536.0714
2023-05-05T03:25:09.396Z,543.4615
2023-05-05T03:26:12.000Z,546.3077
2023-05-05T03:27:14.606Z,545.2308
2023-05-05T03:28:17.192Z,546.9231
2023-05-05T03:29:19.830Z,547.4615
2023-05-05T03:30:22.404Z,547.6154
2023-05-05T03:31:25.047Z,548.2308
2023-05-05T03:32:27.622Z,548.5385
2023-05-05T03:33:30.235Z,547.3846
2023-05-05T03:34:32.819Z,547.3846
2023-05-05T03:35:35.442Z,547.0000
2023-05-05T03:36:38.037Z,547.9231
2023-05-05T03:37:40.658Z,549.6154
2023-05-05T03:38:43.220Z,552.0769
2023-05-05T03:39:45.853Z,552.0000
2023-05-05T03:40:48.430Z,550.4615
2023-05-05T03:41:51.061Z,551.3846
2023-05-05T03:42:53.680Z,552.6154
2023-05-05T03:43:56.280Z,553.7692
2023-05-05T03:44:58.854Z,555.0769
2023-05-05T03:46:01.510Z,556.0769
2023-05-05T03:47:04.049Z,556.7692
2023-05-05T03:48:06.738Z,556.3846
2023-05-05T03:49:09.269Z,555.4615
2023-05-05T03:50:11.896Z,554.4615
2023-05-05T03:51:14.467Z,553.7692
2023-05-05T03:52:17.087Z,554.4615
2023-05-05T03:53:19.667Z,554.1539
2023-05-05T03:54:22.309Z,552.9231
2023-05-05T03:55:24.893Z,551.7692
2023-05-05T03:56:27.507Z,550.4615
2023-05-05T03:57:30.077Z,548.8461
2023-05-05T03:58:32.725Z,549.5385
2023-05-05T04:00:45.446Z,550.6429
2023-05-05T04:01:48.017Z,555.7692
2023-05-05T04:02:50.730Z,556.6923
2023-05-05T04:03:53.321Z,554.4615
2023-05-05T04:04:55.926Z,552.7692
2023-05-05T04:05:58.450Z,551.5385
2023-05-05T04:07:01.070Z,551.8461
2023-05-05T04:08:03.662Z,552.5385
2023-05-05T04:10:40.467Z,534.0714
2023-05-05T04:11:43.247Z,540.0000
2023-05-05T04:12:45.692Z,541.5385
2023-05-05T04:13:48.322Z,544.9231
2023-05-05T04:14:50.898Z,547.0000
2023-05-05T04:15:53.574Z,546.7692
2023-05-05T04:16:56.111Z,546.3846
2023-05-05T04:17:58.819Z,547.5385
2023-05-05T04:19:01.329Z,549.4615
2023-05-05T04:20:03.946Z,552.0769
2023-05-05T04:21:06.563Z,552.4615
2023-05-05T04:22:09.212Z,553.1539
2023-05-05T04:23:11.736Z,553.5385
2023-05-05T04:24:14.362Z,552.6923
2023-05-05T04:25:16.945Z,552.9231
2023-05-05T04:26:19.578Z,555.1539
2023-05-05T04:27:22.141Z,556.7692
2023-05-05T04:28:24.784Z,557.1539
2023-05-05T04:29:27.365Z,557.5385
2023-05-05T04:30:29.986Z,558.8461
2023-05-05T04:31:32.610Z,559.7692
2023-05-05T04:32:35.287Z,558.3846
2023-05-05T04:33:37.789Z,558.4615
2023-05-05T04:34:40.412Z,558.9231
2023-05-05T04:35:42.985Z,558.1539
2023-05-05T04:36:45.711Z,558.1539
2023-05-05T04:37:48.190Z,560.2308
2023-05-05T04:38:50.864Z,561.5385
2023-05-05T04:39:53.412Z,560.7692
2023-05-05T04:40:56.028Z,560.3077
2023-05-05T04:41:58.602Z,559.7692
2023-05-05T04:43:01.241Z,560.2308
2023-05-05T04:44:03.805Z,559.8461
2023-05-05T04:45:06.833Z,559.1539
2023-05-05T04:46:09.058Z,556.6923
2023-05-05T04:47:13.261Z,557.3077
2023-05-05T04:48:14.549Z,556.1539
2023-05-05T04:49:16.849Z,555.0000
2023-05-05T04:50:19.425Z,554.9231
2023-05-05T04:51:22.054Z,551.8461
2023-05-05T04:54:08.472Z,540.6429
2023-05-05T04:55:11.056Z,548.0769
2023-05-05T04:56:13.673Z,550.3846
2023-05-05T04:57:16.264Z,549.6923
2023-05-05T04:58:18.892Z,550.7692
2023-05-05T04:59:21.493Z,550.3846
2023-05-05T05:00:24.112Z,551.8461
2023-05-05T05:01:26.720Z,552.9231
2023-05-05T05:02:29.361Z,551.3846
2023-05-05T05:03:32.070Z,551.9231
2023-05-05T05:04:34.512Z,555.2308
2023-05-05T05:05:37.207Z,556.0769
2023-05-05T05:06:39.701Z,556.0769
2023-05-05T05:07:42.274Z,553.6923
2023-05-05T05:08:44.892Z,552.3846
2023-05-05T05:09:47.480Z,551.9231
2023-05-05T05:10:50.093Z,551.0769
2023-05-05T05:11:52.711Z,551.1539
2023-05-05T05:12:55.358Z,551.3077
2023-05-05T05:13:57.875Z,551.3077
2023-05-05T05:15:00.517Z,552.3846
2023-05-05T05:16:03.091Z,551.6154
2023-05-05T05:17:05.694Z,549.6154
2023-05-05T05:18:08.325Z,549.0769
2023-05-05T05:19:10.896Z,547.1539
2023-05-05T05:20:13.473Z,547.0769
2023-05-05T05:21:16.358Z,546.8461
2023-05-05T05:22:18.679Z,546.4615
2023-05-05T05:23:21.302Z,548.1539
2023-05-05T05:24:23.864Z,548.6154
2023-05-05T05:25:26.493Z,549.6154
2023-05-05T05:26:29.068Z,550.0769
2023-05-05T05:27:31.717Z,551.0769
2023-05-05T05:28:34.333Z,552.0000
2023-05-05T05:29:36.900Z,552.3077
2023-05-05T05:30:39.490Z,553.3077
2023-05-05T05:31:42.169Z,550.9231
2023-05-05T05:32:44.710Z,548.2308
2023-05-05T05:33:47.297Z,543.5385
2023-05-05T05:34:49.868Z,539.9231
2023-05-05T05:35:52.775Z,540.0000
2023-05-05T05:36:55.091Z,539.0000
2023-05-05T05:37:57.699Z,537.6154
2023-05-05T05:39:00.265Z,535.6923
2023-05-05T05:40:02.897Z,534.7692
2023-05-05T05:41:05.463Z,533.9231
2023-05-05T05:42:08.071Z,532.6154
2023-05-05T05:43:10.655Z,531.0769
2023-05-05T05:44:13.292Z,529.8461
2023-05-05T05:45:16.166Z,529.1539
2023-05-05T05:46:18.486Z,525.7692
2023-05-05T05:47:21.035Z,525.3077
2023-05-05T05:48:23.675Z,527.3077
2023-05-05T05:49:26.248Z,528.9231
2023-05-05T05:50:28.870Z,529.1539
2023-05-05T05:51:31.446Z,527.0000
2023-05-05T05:52:34.055Z,524.5385
2023-05-05T05:53:36.649Z,522.6923
2023-05-05T05:54:39.253Z,522.8461
2023-05-05T05:55:41.880Z,524.5385
2023-05-05T05:56:44.460Z,524.1539
2023-05-05T05:57:47.023Z,523.7692
2023-05-05T05:59:54.890Z,522.6429
2023-05-05T06:00:57.508Z,525.7692
2023-05-05T06:02:00.123Z,527.0000
2023-05-05T06:03:02.813Z,528.0769
2023-05-05T06:04:05.341Z,528.1539
2023-05-05T06:05:07.922Z,529.9231
2023-05-05T06:06:10.479Z,530.3077
2023-05-05T06:07:13.100Z,529.3846
2023-05-05T06:08:15.975Z,530.3077
2023-05-05T06:09:18.322Z,531.3077
2023-05-05T06:10:27.981Z,531.7692
2023-05-05T06:11:23.515Z,530.7692
2023-05-05T06:12:26.088Z,531.3077
2023-05-05T06:13:28.721Z,531.8461
2023-05-05T06:14:31.274Z,529.5385
2023-05-05T06:15:33.916Z,530.4615
2023-05-05T06:16:36.478Z,530.4615
2023-05-05T06:17:39.127Z,529.4615
2023-05-05T06:18:41.704Z,528.8461
2023-05-05T06:19:44.295Z,527.3077
2023-05-05T06:20:46.857Z,526.0769
2023-05-05T06:21:49.479Z,522.5385
2023-05-05T06:22:52.085Z,522.0000
2023-05-05T06:23:54.699Z,523.2308
2023-05-05T06:24:57.250Z,520.0000
2023-05-05T06:25:59.867Z,520.4615
2023-05-05T06:27:02.446Z,520.6154
2023-05-05T06:28:05.128Z,518.3846
2023-05-05T06:29:07.621Z,517.9231
2023-05-05T06:30:10.502Z,517.3846
2023-05-05T06:31:12.877Z,517.5385
2023-05-05T06:32:15.438Z,519.1539
2023-05-05T06:33:18.013Z,516.4615
2023-05-05T06:34:20.628Z,517.2308
2023-05-05T06:35:23.203Z,515.3846
2023-05-05T06:36:25.876Z,514.6154
2023-05-05T06:37:28.372Z,514.2308
2023-05-05T06:38:30.989Z,514.0769
2023-05-05T06:39:33.554Z,514.3846
2023-05-05T06:40:36.175Z,511.6923
2023-05-05T06:41:38.782Z,512.3077
2023-05-05T06:42:41.370Z,509.1538
2023-05-05T06:43:43.950Z,506.7692
2023-05-05T06:44:46.545Z,505.8462
2023-05-05T06:45:49.350Z,507.6154
2023-05-05T06:46:51.773Z,511.3077
2023-05-05T06:47:54.328Z,512.6154
2023-05-05T06:48:56.905Z,514.6923
2023-05-05T06:49:59.474Z,512.8461
2023-05-05T06:51:02.927Z,510.3077
2023-05-05T06:52:04.661Z,509.2308
2023-05-05T06:53:07.293Z,508.4615
2023-05-05T06:54:09.841Z,508.5385
2023-05-05T06:55:12.479Z,507.6154
2023-05-05T06:56:15.017Z,505.0769
2023-05-05T06:57:17.641Z,506.3077
2023-05-05T06:58:20.209Z,507.1538
2023-05-05T06:59:23.109Z,505.9231
2023-05-05T07:00:25.389Z,506.0000
2023-05-05T07:01:28.067Z,507.0769
2023-05-05T07:02:30.574Z,507.3846
2023-05-05T07:03:33.190Z,504.3077
2023-05-05T07:04:35.741Z,503.3077
2023-05-05T07:05:38.365Z,503.2308
2023-05-05T07:06:40.931Z,504.0769
2023-05-05T07:07:43.532Z,502.9231
2023-05-05T07:08:46.100Z,503.9231
2023-05-05T07:09:48.706Z,504.8462
2023-05-05T07:10:51.281Z,502.3846
2023-05-05T07:11:53.887Z,501.5385
2023-05-05T07:12:56.601Z,502.8462
2023-05-05T07:13:59.071Z,501.6923
2023-05-05T07:15:09.304Z,502.2308
2023-05-05T07:16:04.299Z,504.0000
2023-05-05T07:17:06.802Z,504.7692
2023-05-05T07:18:09.914Z,501.8462
2023-05-05T07:19:11.990Z,500.3846
2023-05-05T07:20:14.602Z,499.5385
2023-05-05T07:21:17.175Z,501.1538
2023-05-05T07:22:19.813Z,504.1538
2023-05-05T07:23:22.334Z,503.1538
2023-05-05T07:24:24.952Z,502.4615
2023-05-05T07:25:27.515Z,501.0769
2023-05-05T07:26:30.150Z,500.8462
2023-05-05T07:27:32.703Z,499.7692
2023-05-05T07:28:35.322Z,498.6154
2023-05-05T07:29:37.878Z,498.9231
2023-05-05T07:30:40.498Z,499.0000
2023-05-05T07:31:43.087Z,495.8462
2023-05-05T07:32:45.720Z,492.7692
2023-05-05T07:33:48.213Z,490.4615
2023-05-05T07:34:50.844Z,490.6923
2023-05-05T07:35:53.400Z,491.6154
2023-05-05T07:36:56.003Z,491.0769
2023-05-05T07:37:58.568Z,489.9231
2023-05-05T07:39:01.177Z,489.3846
2023-05-05T07:40:03.746Z,488.0000
2023-05-05T07:41:06.362Z,490.6154
2023-05-05T07:42:08.909Z,490.6154
2023-05-05T07:43:11.518Z,488.0769
2023-05-05T07:44:14.090Z,486.6154
2023-05-05T07:45:17.193Z,486.0769
2023-05-05T07:46:19.402Z,484.4615
2023-05-05T07:47:22.028Z,486.1538
2023-05-05T07:48:24.436Z,485.0769
2023-05-05T07:49:27.033Z,488.7692
2023-05-05T07:50:29.893Z,486.8462
2023-05-05T07:51:33.953Z,484.8462
2023-05-05T07:52:46.630Z,483.6154
2023-05-05T07:53:37.392Z,482.0000
2023-05-05T07:54:39.950Z,480.6154
2023-05-05T07:55:42.553Z,482.0000
2023-05-05T07:56:45.117Z,481.0769
2023-05-05T07:59:41.018Z,476.8571
2023-05-05T08:00:43.632Z,478.9231
2023-05-05T08:01:46.277Z,476.5385
2023-05-05T08:02:48.900Z,476.3077
2023-05-05T08:03:51.469Z,476.2308
2023-05-05T08:04:53.992Z,477.6154
2023-05-05T08:05:56.556Z,480.4615
2023-05-05T08:06:59.167Z,479.5385
2023-05-05T08:09:02.339Z,470.5000
2023-05-05T08:10:04.929Z,473.1538
2023-05-05T08:11:07.515Z,472.9231
2023-05-05T08:12:10.088Z,473.0000
2023-05-05T08:13:12.819Z,471.8462
2023-05-05T08:14:15.284Z,473.6923
2023-05-05T08:15:17.882Z,474.5385
2023-05-05T08:16:20.537Z,473.0769
2023-05-05T08:17:23.205Z,473.8462
2023-05-05T08:18:25.629Z,473.9231
2023-05-05T08:19:29.491Z,476.0000
2023-05-05T08:20:30.820Z,476.0000
2023-05-05T08:21:33.440Z,474.0000
2023-05-05T08:22:35.982Z,471.0000
2023-05-05T08:23:38.600Z,470.2308
2023-05-05T08:24:41.159Z,469.6923
2023-05-05T08:25:43.797Z,467.4615
2023-05-05T08:26:46.365Z,467.6923
2023-05-05T08:27:48.943Z,466.6923
2023-05-05T08:28:51.505Z,468.7692
2023-05-05T08:29:54.119Z,471.0769
2023-05-05T08:30:56.673Z,471.8462
2023-05-05T08:31:59.326Z,470.6923
2023-05-05T08:33:02.094Z,469.3846
2023-05-05T08:34:04.474Z,468.2308
2023-05-05T08:35:07.705Z,467.8462
2023-05-05T08:36:09.642Z,467.0769
2023-05-05T08:37:12.219Z,467.3846
2023-05-05T08:38:14.814Z,463.5385
2023-05-05T08:39:17.583Z,465.2308
2023-05-05T08:40:19.983Z,467.1538
2023-05-05T08:41:22.559Z,466.4615
2023-05-05T08:42:36.374Z,466.5385
2023-05-05T08:43:27.710Z,464.9231
2023-05-05T08:44:30.361Z,464.0769
2023-05-05T08:46:38.068Z,462.5000
2023-05-05T08:47:40.686Z,461.6923
2023-05-05T08:48:43.282Z,460.6923
2023-05-05T08:49:45.812Z,459.3077
2023-05-05T08:50:48.415Z,456.3846
2023-05-05T08:51:50.959Z,455.0769
2023-05-05T08:52:53.622Z,453.3846
2023-05-05T08:53:56.152Z,450.8462
2023-05-05T08:54:58.733Z,451.0000
2023-05-05T08:56:01.299Z,450.4615
2023-05-05T08:57:03.932Z,451.7692
2023-05-05T08:58:06.482Z,453.7692
2023-05-05T08:59:09.092Z,458.7692
2023-05-05T09:00:11.647Z,465.2308
2023-05-05T09:01:14.607Z,465.3846
2023-05-05T09:02:16.910Z,463.9231
2023-05-05T09:03:19.482Z,460.8462
2023-05-05T09:04:22.089Z,455.1538
2023-05-05T09:05:24.620Z,452.9231
2023-05-05T09:06:27.171Z,452.4615
2023-05-05T09:07:29.789Z,452.3077
2023-05-05T09:08:32.360Z,449.4615
2023-05-05T09:09:34.962Z,447.0769
2023-05-05T09:10:37.526Z,444.5385
2023-05-05T09:11:40.123Z,442.3077
2023-05-05T09:12:42.731Z,443.7692
2023-05-05T09:13:45.284Z,442.6154
2023-05-05T09:14:47.854Z,442.3846
2023-05-05T09:15:50.464Z,441.9231
2023-05-05T09:16:53.061Z,442.9231
2023-05-05T09:17:55.673Z,442.7692
2023-05-05T09:18:58.204Z,442.5385
2023-05-05T09:20:00.857Z,444.6154
2023-05-05T09:21:03.381Z,445.5385
2023-05-05T09:22:06.001Z,445.6154
2023-05-05T09:23:08.579Z,448.1538
2023-05-05T09:24:11.176Z,447.8462
2023-05-05T09:25:13.730Z,446.0769
2023-05-05T09:26:16.360Z,442.8462
2023-05-05T09:27:19.473Z,443.3077
2023-05-05T09:28:21.533Z,442.2308
2023-05-05T09:29:24.073Z,441.3846
2023-05-05T09:30:26.687Z,439.7692
2023-05-05T09:31:29.314Z,440.2308
2023-05-05T09:32:31.844Z,439.9231
2023-05-05T09:33:34.409Z,438.9231
2023-05-05T09:34:37.029Z,440.0000
2023-05-05T09:35:39.684Z,440.6923
2023-05-05T09:36:42.264Z,439.8462
2023-05-05T09:37:44.760Z,439.7692
2023-05-05T09:38:47.357Z,440.5385
2023-05-05T09:39:49.926Z,440.2308
2023-05-05T09:40:52.527Z,440.2308
2023-05-05T09:41:55.093Z,440.7692
2023-05-05T09:42:57.698Z,442.9231
2023-05-05T09:44:00.257Z,444.9231
2023-05-05T09:45:02.868Z,446.3077
2023-05-05T09:46:05.459Z,447.8462
2023-05-05T09:47:18.098Z,451.0769
2023-05-05T09:48:10.621Z,449.3077
2023-05-05T09:49:13.219Z,446.7692
2023-05-05T09:50:15.777Z,444.6154
2023-05-05T09:51:18.574Z,442.1538
2023-05-05T09:52:20.949Z,441.1538
2023-05-05T09:53:23.559Z,438.4615
2023-05-05T09:54:26.129Z,437.2308
2023-05-05T09:55:28.720Z,438.7692
2023-05-05T09:56:31.284Z,438.5385
2023-05-05T09:57:33.902Z,437.0000
2023-05-05T09:58:36.568Z,437.6154
2023-05-05T09:59:39.074Z,437.5385
2023-05-05T10:00:41.629Z,438.0000
2023-05-05T10:01:44.267Z,437.6154
2023-05-05T10:02:46.834Z,439.0000
2023-05-05T10:03:49.411Z,440.4615
2023-05-05T10:04:52.075Z,439.1538
2023-05-05T10:05:54.591Z,438.3077
2023-05-05T10:06:57.266Z,437.1538
2023-05-05T10:07:59.746Z,436.5385
2023-05-05T10:09:02.311Z,435.6923
2023-05-05T10:10:05.133Z,434.7692
2023-05-05T10:11:07.493Z,434.0000
2023-05-05T10:12:10.102Z,434.0769
2023-05-05T10:13:12.755Z,434.6923
2023-05-05T10:14:15.255Z,434.7692
2023-05-05T10:15:17.823Z,434.7692
2023-05-05T10:16:20.494Z,434.1538
2023-05-05T10:17:22.984Z,435.1538
2023-05-05T10:18:25.730Z,435.6154
2023-05-05T10:19:28.137Z,434.1538
2023-05-05T10:20:30.750Z,434.6154
2023-05-05T10:21:33.304Z,435.4615
2023-05-05T10:22:35.978Z,435.6154
2023-05-05T10:23:38.468Z,435.3077
2023-05-05T10:24:41.074Z,433.2308
2023-05-05T10:26:39.582Z,435.1429
2023-05-05T10:27:42.560Z,434.3077
2023-05-05T10:28:44.567Z,434.7692
2023-05-05T10:29:47.121Z,433.6923
2023-05-05T10:30:49.727Z,433.6154
2023-05-05T10:31:52.317Z,434.3846
2023-05-05T10:33:07.961Z,433.8462
2023-05-05T10:33:57.480Z,433.5385
2023-05-05T10:35:00.058Z,433.3077
2023-05-05T10:36:03.681Z,432.4615
2023-05-05T10:37:07.281Z,430.8462
2023-05-05T10:38:07.849Z,430.6923
2023-05-05T10:39:12.445Z,433.0000
2023-05-05T10:40:12.945Z,432.7692
2023-05-05T10:41:15.557Z,431.0769
2023-05-05T10:42:18.693Z,429.8462
2023-05-05T10:43:20.710Z,429.8462
2023-05-05T10:44:23.261Z,430.0769
2023-05-05T10:45:27.996Z,428.0000
2023-05-05T10:46:28.475Z,427.9231
2023-05-05T10:47:33.084Z,429.3077
2023-05-05T10:48:33.626Z,431.6923
2023-05-05T10:49:36.204Z,433.8462
2023-05-05T10:50:38.771Z,437.1538
2023-05-05T10:51:41.462Z,439.4615
2023-05-05T10:52:43.959Z,441.5385
2023-05-05T10:53:46.667Z,441.6154
2023-05-05T10:54:49.117Z,441.7692
2023-05-05T10:55:51.719Z,439.7692
2023-05-05T10:56:54.289Z,437.8462
2023-05-05T10:57:56.894Z,437.5385
2023-05-05T10:59:00.773Z,438.1538
2023-05-05T11:00:02.070Z,437.4615
2023-05-05T11:01:04.669Z,437.3077
2023-05-05T11:02:07.238Z,435.2308
2023-05-05T11:03:09.818Z,434.6154
2023-05-05T11:04:12.416Z,434.7692
2023-05-05T11:05:15.007Z,434.6923
2023-05-05T11:06:17.545Z,434.8462
2023-05-05T11:07:20.299Z,435.0769
2023-05-05T11:08:22.721Z,433.7692
2023-05-05T11:09:25.398Z,432.4615
2023-05-05T11:10:27.880Z,433.3077
2023-05-05T11:11:30.444Z,433.9231
2023-05-05T11:12:33.109Z,433.1538
2023-05-05T11:13:35.619Z,435.2308
2023-05-05T11:14:38.221Z,436.3077
2023-05-05T11:15:40.792Z,443.9231
2023-05-05T11:16:43.438Z,448.3077
2023-05-05T11:17:46.030Z,448.1538
2023-05-05T11:18:48.577Z,446.1538
2023-05-05T11:19:51.140Z,445.3846
2023-05-05T11:20:53.741Z,445.0769
2023-05-05T11:21:56.303Z,442.5385
2023-05-05T11:22:58.922Z,439.6923
2023-05-05T11:24:01.476Z,438.0769
2023-05-05T11:25:04.191Z,435.2308
2023-05-05T11:26:06.643Z,433.8462
2023-05-05T11:27:09.245Z,433.9231
2023-05-05T11:28:11.842Z,434.3077
2023-05-05T11:29:14.831Z,431.7692
2023-05-05T11:30:16.960Z,430.3077
2023-05-05T11:31:19.946Z,430.8462
2023-05-05T11:32:22.129Z,429.6923
2023-05-05T11:33:24.746Z,427.3077
2023-05-05T11:34:27.305Z,427.1538
2023-05-05T11:35:29.901Z,428.0769
2023-05-05T11:36:32.460Z,430.0769
2023-05-05T11:37:35.061Z,427.0000
2023-05-05T11:38:37.623Z,427.0000
2023-05-05T11:39:40.222Z,426.7692
2023-05-05T11:40:42.853Z,426.3077
2023-05-05T11:41:45.385Z,425.0000
2023-05-05T11:42:47.935Z,423.8462
2023-05-05T11:43:50.542Z,422.5385
2023-05-05T11:44:53.105Z,421.7692
2023-05-05T11:45:55.754Z,421.0769
2023-05-05T11:47:01.068Z,420.7692
2023-05-05T11:48:00.911Z,421.4615
2023-05-05T11:49:03.432Z,421.3846
2023-05-05T11:50:06.170Z,419.9231
2023-05-05T11:51:08.577Z,419.5385
2023-05-05T11:52:11.181Z,421.5385
2023-05-05T11:53:13.723Z,421.0769
2023-05-05T11:54:16.333Z,419.7692
2023-05-05T11:55:18.892Z,417.1538
2023-05-05T11:56:21.559Z,416.0769
2023-05-05T11:57:24.044Z,415.9231
2023-05-05T11:58:26.650Z,415.7692
2023-05-05T11:59:29.475Z,414.3077
2023-05-05T12:00:31.815Z,414.8462
2023-05-05T12:01:34.377Z,415.0000
2023-05-05T12:02:37.034Z,416.3846
2023-05-05T12:03:39.609Z,414.3846
2023-05-05T12:04:42.171Z,413.3846
2023-05-05T12:05:44.671Z,414.4615
2023-05-05T12:06:47.281Z,413.3846
2023-05-05T12:07:49.831Z,416.0769
2023-05-05T12:08:52.446Z,414.6154
2023-05-05T12:09:55.005Z,414.7692
2023-05-05T12:10:57.592Z,416.6923
2023-05-05T12:12:00.218Z,418.0000
2023-05-05T12:13:02.837Z,419.1538
2023-05-05T12:14:05.306Z,417.8462
2023-05-05T12:15:07.934Z,417.7692
2023-05-05T12:16:10.503Z,417.8462
2023-05-05T12:17:13.061Z,418.0000
2023-05-05T12:18:15.616Z,418.0000
2023-05-05T12:19:18.228Z,416.8462
2023-05-05T12:20:20.827Z,418.6923
2023-05-05T12:21:23.383Z,418.9231
2023-05-05T12:22:25.950Z,418.9231
2023-05-05T12:23:28.540Z,418.0000
2023-05-05T12:24:31.094Z,418.4615
2023-05-05T12:25:33.709Z,419.0000
2023-05-05T12:26:36.248Z,418.7692
2023-05-05T12:27:39.021Z,418.6923
2023-05-05T12:28:41.411Z,418.2308
2023-05-05T12:29:44.012Z,418.5385
2023-05-05T12:30:46.615Z,417.7692
2023-05-05T12:31:49.186Z,417.7692
2023-05-05T12:32:51.753Z,416.9231
2023-05-05T12:33:54.331Z,417.4615